createdAt,value
2017-09-15T00:00:41.171Z,984.3
2017-09-15T00:01:41.959Z,984.4
2017-09-15T00:02:42.721Z,984.3
2017-09-15T00:03:43.813Z,984.3
2017-09-15T00:04:44.751Z,984.4
2017-09-15T00:05:45.948Z,984.4
2017-09-15T00:06:46.642Z,984.3
2017-09-15T00:07:47.433Z,984.3
2017-09-15T00:08:48.201Z,984.4
2017-09-15T00:09:48.981Z,984.4
2017-09-15T00:10:49.734Z,984.4
2017-09-15T00:11:51.010Z,984.5
2017-09-15T00:12:51.972Z,984.5
2017-09-15T00:13:52.739Z,984.5
2017-09-15T00:14:53.527Z,984.5
2017-09-15T00:15:54.670Z,984.5
2017-09-15T00:16:55.632Z,984.6
2017-09-15T00:17:56.937Z,984.6
2017-09-15T00:18:58.017Z,984.6
2017-09-15T00:19:58.944Z,984.6
2017-09-15T00:20:59.653Z,984.6
2017-09-15T00:22:00.379Z,984.7
2017-09-15T00:23:01.444Z,984.7
2017-09-15T00:24:02.142Z,984.7
2017-09-15T00:25:03.004Z,984.7
2017-09-15T00:26:04.062Z,984.8
2017-09-15T00:27:05.579Z,984.9
2017-09-15T00:28:06.457Z,984.9
2017-09-15T00:29:13.516Z,984.9
2017-09-15T00:30:14.848Z,984.9
2017-09-15T00:31:15.908Z,984.9
2017-09-15T00:32:17.253Z,985.0
2017-09-15T00:33:18.027Z,985.0
2017-09-15T00:34:19.517Z,985.0
2017-09-15T00:35:20.533Z,985.0
2017-09-15T00:36:21.544Z,985.0
2017-09-15T00:37:22.558Z,985.0
2017-09-15T00:38:23.439Z,985.0
2017-09-15T00:39:24.143Z,985.1
2017-09-15T00:40:24.916Z,985.1
2017-09-15T00:41:25.693Z,985.1
2017-09-15T00:42:26.492Z,985.1
2017-09-15T00:43:27.286Z,985.2
2017-09-15T00:44:28.101Z,985.2
2017-09-15T00:45:29.146Z,985.2
2017-09-15T00:46:29.825Z,985.2
2017-09-15T00:47:30.556Z,985.2
2017-09-15T00:48:31.341Z,985.2
2017-09-15T00:49:32.100Z,985.2
2017-09-15T00:50:32.929Z,985.3
2017-09-15T00:51:33.717Z,985.3
2017-09-15T00:52:34.472Z,985.2
2017-09-15T00:53:35.203Z,985.3
2017-09-15T00:54:36.876Z,985.3
2017-09-15T00:55:37.613Z,985.3
2017-09-15T00:56:38.336Z,985.2
2017-09-15T00:57:39.077Z,985.3
2017-09-15T00:58:39.863Z,985.3
2017-09-15T00:59:41.277Z,985.3
2017-09-15T01:00:42.373Z,985.4
2017-09-15T01:01:44.149Z,985.3
2017-09-15T01:02:45.302Z,985.3
2017-09-15T01:03:46.298Z,985.3
2017-09-15T01:04:47.925Z,985.4
2017-09-15T01:05:49.082Z,985.3
2017-09-15T01:06:50.447Z,985.4
2017-09-15T01:07:51.611Z,985.4
2017-09-15T01:08:53.159Z,985.4
2017-09-15T01:09:53.830Z,985.4
2017-09-15T01:10:54.626Z,985.4
2017-09-15T01:11:55.574Z,985.4
2017-09-15T01:12:56.397Z,985.5
2017-09-15T01:13:57.127Z,985.5
2017-09-15T01:14:58.031Z,985.6
2017-09-15T01:15:58.813Z,985.5
2017-09-15T01:16:59.933Z,985.5
2017-09-15T01:18:00.620Z,985.5
2017-09-15T01:19:01.368Z,985.5
2017-09-15T01:20:02.155Z,985.5
2017-09-15T01:21:03.254Z,985.6
2017-09-15T01:22:03.993Z,985.6
2017-09-15T01:23:05.052Z,985.6
2017-09-15T01:24:05.773Z,985.6
2017-09-15T01:25:06.608Z,985.6
2017-09-15T01:26:07.368Z,985.5
2017-09-15T01:27:08.165Z,985.6
2017-09-15T01:28:08.926Z,985.6
2017-09-15T01:29:09.726Z,985.6
2017-09-15T01:30:10.611Z,985.6
2017-09-15T01:31:11.624Z,985.6
2017-09-15T01:32:12.617Z,985.6
2017-09-15T01:33:13.439Z,985.6
2017-09-15T01:34:14.219Z,985.6
2017-09-15T01:35:14.961Z,985.5
2017-09-15T01:36:15.669Z,985.6
2017-09-15T01:37:16.468Z,985.6
2017-09-15T01:38:17.243Z,985.6
2017-09-15T01:39:18.007Z,985.6
2017-09-15T01:40:18.726Z,985.7
2017-09-15T01:41:19.455Z,985.7
2017-09-15T01:42:20.296Z,985.7
2017-09-15T01:43:21.752Z,985.7
2017-09-15T01:44:22.504Z,985.7
2017-09-15T01:45:23.280Z,985.7
2017-09-15T01:46:24.080Z,985.7
2017-09-15T01:47:25.014Z,985.7
2017-09-15T01:48:25.851Z,985.7
2017-09-15T01:49:26.626Z,985.7
2017-09-15T01:50:27.742Z,985.8
2017-09-15T01:51:28.738Z,985.7
2017-09-15T01:52:30.166Z,985.8
2017-09-15T01:53:30.931Z,985.8
2017-09-15T01:54:32.551Z,985.8
2017-09-15T01:55:33.463Z,985.9
2017-09-15T01:56:34.212Z,985.9
2017-09-15T01:57:35.011Z,985.9
2017-09-15T01:58:35.734Z,986.0
2017-09-15T01:59:36.469Z,986.0
2017-09-15T02:01:52.755Z,986.0
2017-09-15T02:02:53.451Z,986.0
2017-09-15T02:03:54.234Z,986.1
2017-09-15T02:04:55.052Z,986.0
2017-09-15T02:05:55.968Z,986.1
2017-09-15T02:06:56.709Z,986.0
2017-09-15T02:07:57.439Z,986.0
2017-09-15T02:08:58.231Z,986.0
2017-09-15T02:09:58.987Z,986.1
2017-09-15T02:10:59.798Z,986.1
2017-09-15T02:12:00.741Z,986.1
2017-09-15T02:13:01.506Z,986.1
2017-09-15T02:14:02.867Z,986.1
2017-09-15T02:15:03.663Z,986.1
2017-09-15T02:16:04.453Z,986.1
2017-09-15T02:17:05.243Z,986.2
2017-09-15T02:18:06.203Z,986.2
2017-09-15T02:19:07.380Z,986.1
2017-09-15T02:20:08.063Z,986.2
2017-09-15T02:21:08.775Z,986.1
2017-09-15T02:22:09.527Z,986.1
2017-09-15T02:23:10.261Z,986.1
2017-09-15T02:24:11.320Z,986.1
2017-09-15T02:25:12.180Z,986.1
2017-09-15T02:26:12.917Z,986.2
2017-09-15T02:27:13.744Z,986.1
2017-09-15T02:28:14.430Z,986.2
2017-09-15T02:29:15.287Z,986.2
2017-09-15T02:30:16.026Z,986.2
2017-09-15T02:31:16.974Z,986.2
2017-09-15T02:32:17.752Z,986.2
2017-09-15T02:33:18.451Z,986.2
2017-09-15T02:34:19.286Z,986.2
2017-09-15T02:35:20.068Z,986.3
2017-09-15T02:36:20.760Z,986.2
2017-09-15T02:37:21.513Z,986.3
2017-09-15T02:38:22.295Z,986.3
2017-09-15T02:39:23.038Z,986.2
2017-09-15T02:40:23.852Z,986.3
2017-09-15T02:41:24.906Z,986.3
2017-09-15T02:42:25.576Z,986.3
2017-09-15T02:43:26.457Z,986.3
2017-09-15T02:44:27.248Z,986.2
2017-09-15T02:45:27.992Z,986.2
2017-09-15T02:46:29.151Z,986.3
2017-09-15T02:47:29.875Z,986.3
2017-09-15T02:48:30.807Z,986.3
2017-09-15T02:49:31.686Z,986.3
2017-09-15T02:50:32.515Z,986.3
2017-09-15T02:51:33.270Z,986.3
2017-09-15T02:52:33.968Z,986.4
2017-09-15T02:53:34.775Z,986.4
2017-09-15T02:54:35.509Z,986.4
2017-09-15T02:55:36.348Z,986.4
2017-09-15T02:56:37.196Z,986.3
2017-09-15T02:57:38.496Z,986.3
2017-09-15T02:58:39.229Z,986.4
2017-09-15T02:59:40.388Z,986.3
2017-09-15T03:00:41.084Z,986.4
2017-09-15T03:01:41.810Z,986.4
2017-09-15T03:02:42.504Z,986.3
2017-09-15T03:03:43.409Z,986.3
2017-09-15T03:04:44.214Z,986.4
2017-09-15T03:05:44.942Z,986.4
2017-09-15T03:06:45.675Z,986.4
2017-09-15T03:07:46.408Z,986.4
2017-09-15T03:08:47.443Z,986.4
2017-09-15T03:09:48.122Z,986.5
2017-09-15T03:10:48.864Z,986.5
2017-09-15T03:11:49.606Z,986.5
2017-09-15T03:12:50.344Z,986.5
2017-09-15T03:13:51.076Z,986.6
2017-09-15T03:14:51.902Z,986.6
2017-09-15T03:15:52.693Z,986.6
2017-09-15T03:16:53.461Z,986.6
2017-09-15T03:17:54.174Z,986.6
2017-09-15T03:18:55.049Z,986.6
2017-09-15T03:19:55.798Z,986.6
2017-09-15T03:20:56.561Z,986.6
2017-09-15T03:21:57.309Z,986.6
2017-09-15T03:22:58.270Z,986.6
2017-09-15T03:23:59.056Z,986.6
2017-09-15T03:24:59.923Z,986.6
2017-09-15T03:26:00.689Z,986.7
2017-09-15T03:27:01.465Z,986.7
2017-09-15T03:28:02.179Z,986.7
2017-09-15T03:29:02.912Z,986.7
2017-09-15T03:30:03.654Z,986.7
2017-09-15T03:31:04.650Z,986.7
2017-09-15T03:32:05.668Z,986.7
2017-09-15T03:33:06.434Z,986.7
2017-09-15T03:34:07.157Z,986.7
2017-09-15T03:35:07.933Z,986.7
2017-09-15T03:36:08.886Z,986.7
2017-09-15T03:37:09.735Z,986.7
2017-09-15T03:38:10.734Z,986.8
2017-09-15T03:39:11.557Z,986.8
2017-09-15T03:40:12.323Z,986.8
2017-09-15T03:41:13.320Z,986.8
2017-09-15T03:42:14.080Z,986.8
2017-09-15T03:43:15.261Z,986.8
2017-09-15T03:44:16.036Z,986.8
2017-09-15T03:45:16.864Z,986.8
2017-09-15T03:46:17.826Z,986.8
2017-09-15T03:47:18.566Z,986.8
2017-09-15T03:48:19.316Z,986.8
2017-09-15T03:49:20.009Z,986.8
2017-09-15T03:50:20.774Z,986.8
2017-09-15T03:51:21.505Z,986.8
2017-09-15T03:52:22.274Z,986.8
2017-09-15T03:53:23.015Z,986.9
2017-09-15T03:54:23.762Z,986.9
2017-09-15T03:55:24.591Z,986.8
2017-09-15T03:56:25.297Z,986.9
2017-09-15T03:57:26.285Z,986.9
2017-09-15T03:58:27.085Z,986.9
2017-09-15T03:59:28.108Z,986.9
2017-09-15T04:00:28.889Z,986.9
2017-09-15T04:01:30.179Z,986.9
2017-09-15T04:02:30.971Z,986.9
2017-09-15T04:03:31.719Z,986.9
2017-09-15T04:04:32.526Z,986.9
2017-09-15T04:05:33.278Z,986.9
2017-09-15T04:06:34.305Z,986.9
2017-09-15T04:07:35.031Z,986.9
2017-09-15T04:08:35.803Z,987.0
2017-09-15T04:09:36.771Z,987.0
2017-09-15T04:10:37.490Z,987.0
2017-09-15T04:11:38.250Z,987.0
2017-09-15T04:12:39.060Z,987.0
2017-09-15T04:13:39.896Z,987.0
2017-09-15T04:14:40.603Z,987.1
2017-09-15T04:16:56.947Z,987.1
2017-09-15T04:17:57.644Z,987.1
2017-09-15T04:18:58.526Z,987.1
2017-09-15T04:19:59.360Z,987.1
2017-09-15T04:21:00.159Z,987.1
2017-09-15T04:22:00.989Z,987.1
2017-09-15T04:23:01.909Z,987.2
2017-09-15T04:25:18.305Z,987.2
2017-09-15T04:26:19.087Z,987.1
2017-09-15T04:27:19.934Z,987.2
2017-09-15T04:28:20.878Z,987.2
2017-09-15T04:29:21.960Z,987.2
2017-09-15T04:30:22.835Z,987.2
2017-09-15T04:31:23.610Z,987.3
2017-09-15T04:32:24.449Z,987.2
2017-09-15T04:33:25.191Z,987.3
2017-09-15T04:34:25.936Z,987.3
2017-09-15T04:35:26.785Z,987.3
2017-09-15T04:36:27.486Z,987.3
2017-09-15T04:37:28.294Z,987.3
2017-09-15T04:38:29.131Z,987.3
2017-09-15T04:39:29.882Z,987.3
2017-09-15T04:40:31.469Z,987.3
2017-09-15T04:41:32.168Z,987.3
2017-09-15T04:42:33.005Z,987.3
2017-09-15T04:43:33.729Z,987.3
2017-09-15T04:44:34.692Z,987.3
2017-09-15T04:45:35.372Z,987.3
2017-09-15T04:46:36.288Z,987.2
2017-09-15T04:47:38.250Z,987.2
2017-09-15T04:48:39.028Z,987.3
2017-09-15T04:49:39.758Z,987.3
2017-09-15T04:50:40.567Z,987.3
2017-09-15T04:51:41.305Z,987.3
2017-09-15T04:52:42.520Z,987.3
2017-09-15T04:53:43.259Z,987.3
2017-09-15T04:54:44.174Z,987.3
2017-09-15T04:55:44.955Z,987.4
2017-09-15T04:56:45.741Z,987.4
2017-09-15T04:57:46.475Z,987.3
2017-09-15T04:58:47.405Z,987.3
2017-09-15T04:59:48.155Z,987.3
2017-09-15T05:02:04.497Z,987.4
2017-09-15T05:03:05.432Z,987.4
2017-09-15T05:04:06.227Z,987.4
2017-09-15T05:05:07.577Z,987.4
2017-09-15T05:06:08.259Z,987.4
2017-09-15T05:07:08.982Z,987.5
2017-09-15T05:08:09.760Z,987.4
2017-09-15T05:09:10.538Z,987.5
2017-09-15T05:10:11.260Z,987.5
2017-09-15T05:11:11.987Z,987.5
2017-09-15T05:12:12.816Z,987.5
2017-09-15T05:13:13.627Z,987.5
2017-09-15T05:14:14.697Z,987.6
2017-09-15T05:15:15.486Z,987.6
2017-09-15T05:16:16.699Z,987.6
2017-09-15T05:17:17.391Z,987.6
2017-09-15T05:18:18.100Z,987.6
2017-09-15T05:19:18.904Z,987.6
2017-09-15T05:20:19.697Z,987.6
2017-09-15T05:21:20.450Z,987.6
2017-09-15T05:22:21.322Z,987.6
2017-09-15T05:23:22.167Z,987.6
2017-09-15T05:24:22.898Z,987.6
2017-09-15T05:26:39.145Z,987.7
2017-09-15T05:27:39.953Z,987.6
2017-09-15T05:28:40.684Z,987.7
2017-09-15T05:29:41.454Z,987.7
2017-09-15T05:30:42.804Z,987.7
2017-09-15T05:31:43.564Z,987.7
2017-09-15T05:32:44.413Z,987.7
2017-09-15T05:33:45.413Z,987.7
2017-09-15T05:34:46.130Z,987.7
2017-09-15T05:35:46.962Z,987.7
2017-09-15T05:36:47.644Z,987.7
2017-09-15T05:37:48.482Z,987.7
2017-09-15T05:38:49.213Z,987.7
2017-09-15T05:39:49.947Z,987.7
2017-09-15T05:40:50.840Z,987.6
2017-09-15T05:41:52.898Z,987.7
2017-09-15T05:42:53.856Z,987.6
2017-09-15T05:43:54.809Z,987.6
2017-09-15T05:44:55.628Z,987.7
2017-09-15T05:45:56.442Z,987.7
2017-09-15T05:46:57.821Z,987.6
2017-09-15T05:47:58.641Z,987.7
2017-09-15T05:49:05.678Z,987.7
2017-09-15T05:50:06.413Z,987.7
2017-09-15T05:51:07.140Z,987.7
2017-09-15T05:52:07.887Z,987.7
2017-09-15T05:53:09.103Z,987.7
2017-09-15T05:54:16.676Z,987.6
2017-09-15T05:55:17.457Z,987.7
2017-09-15T05:56:18.559Z,987.6
2017-09-15T05:58:35.182Z,987.6
2017-09-15T05:59:36.753Z,987.7
2017-09-15T06:00:37.483Z,987.7
2017-09-15T06:01:38.400Z,987.7
2017-09-15T06:02:39.196Z,987.7
2017-09-15T06:03:39.981Z,987.8
2017-09-15T06:04:40.844Z,987.8
2017-09-15T06:05:41.634Z,987.8
2017-09-15T06:06:42.402Z,987.8
2017-09-15T06:10:14.434Z,987.8
2017-09-15T06:11:15.503Z,987.8
2017-09-15T06:12:16.279Z,987.8
2017-09-15T06:13:17.065Z,987.8
2017-09-15T06:14:17.818Z,987.8
2017-09-15T06:15:18.771Z,987.8
2017-09-15T06:16:19.504Z,987.8
2017-09-15T06:17:20.452Z,987.8
2017-09-15T06:18:21.255Z,987.9
2017-09-15T06:19:27.282Z,987.9
2017-09-15T06:20:28.399Z,987.9
2017-09-15T06:21:29.444Z,987.9
2017-09-15T06:22:30.155Z,987.9
2017-09-15T06:23:31.014Z,987.9
2017-09-15T06:24:31.714Z,987.9
2017-09-15T06:25:32.977Z,987.9
2017-09-15T06:26:34.223Z,987.9
2017-09-15T06:27:35.717Z,987.9
2017-09-15T06:28:37.161Z,988.0
2017-09-15T06:29:37.821Z,988.0
2017-09-15T06:30:39.012Z,988.0
2017-09-15T06:31:39.906Z,988.0
2017-09-15T06:32:40.700Z,988.0
2017-09-15T06:33:41.510Z,988.0
2017-09-15T06:34:42.495Z,988.0
2017-09-15T06:35:43.361Z,988.1
2017-09-15T06:36:44.305Z,988.1
2017-09-15T06:37:45.242Z,988.1
2017-09-15T06:38:46.000Z,988.1
2017-09-15T06:39:46.774Z,988.2
2017-09-15T06:40:47.645Z,988.1
2017-09-15T06:41:48.333Z,988.1
2017-09-15T06:42:49.257Z,988.2
2017-09-15T06:43:49.951Z,988.1
2017-09-15T06:44:50.683Z,988.2
2017-09-15T06:45:51.790Z,988.2
2017-09-15T06:46:52.547Z,988.2
2017-09-15T06:47:53.320Z,988.2
2017-09-15T06:48:54.440Z,988.2
2017-09-15T06:49:55.379Z,988.2
2017-09-15T06:50:56.253Z,988.3
2017-09-15T06:51:57.073Z,988.3
2017-09-15T06:52:57.791Z,988.3
2017-09-15T06:53:58.549Z,988.3
2017-09-15T06:54:59.293Z,988.3
2017-09-15T06:56:00.089Z,988.2
2017-09-15T06:57:00.963Z,988.3
2017-09-15T06:58:01.634Z,988.3
2017-09-15T06:59:02.383Z,988.3
2017-09-15T07:00:03.368Z,988.3
2017-09-15T07:01:04.257Z,988.3
2017-09-15T07:02:04.991Z,988.3
2017-09-15T07:03:05.758Z,988.3
2017-09-15T07:04:06.640Z,988.2
2017-09-15T07:05:07.535Z,988.2
2017-09-15T07:06:08.343Z,988.2
2017-09-15T07:07:09.310Z,988.2
2017-09-15T07:08:10.152Z,988.3
2017-09-15T07:09:11.113Z,988.3
2017-09-15T07:10:11.844Z,988.3
2017-09-15T07:11:12.659Z,988.2
2017-09-15T07:12:13.451Z,988.3
2017-09-15T07:13:14.231Z,988.3
2017-09-15T07:14:15.057Z,988.3
2017-09-15T07:15:15.940Z,988.3
2017-09-15T07:16:16.698Z,988.4
2017-09-15T07:17:17.503Z,988.4
2017-09-15T07:18:18.209Z,988.4
2017-09-15T07:19:19.192Z,988.4
2017-09-15T07:20:19.920Z,988.4
2017-09-15T07:21:20.793Z,988.4
2017-09-15T07:22:21.551Z,988.4
2017-09-15T07:23:22.287Z,988.4
2017-09-15T07:24:23.115Z,988.5
2017-09-15T07:25:23.922Z,988.5
2017-09-15T07:26:24.884Z,988.5
2017-09-15T07:27:25.657Z,988.5
2017-09-15T07:28:26.518Z,988.6
2017-09-15T07:29:27.242Z,988.6
2017-09-15T07:30:28.227Z,988.6
2017-09-15T07:31:28.980Z,988.5
2017-09-15T07:32:29.737Z,988.6
2017-09-15T07:33:30.441Z,988.6
2017-09-15T07:34:31.233Z,988.6
2017-09-15T07:35:31.993Z,988.6
2017-09-15T07:36:32.918Z,988.6
2017-09-15T07:37:33.707Z,988.6
2017-09-15T07:38:34.535Z,988.6
2017-09-15T07:39:35.255Z,988.5
2017-09-15T07:40:36.013Z,988.6
2017-09-15T07:41:36.951Z,988.5
2017-09-15T07:42:37.822Z,988.6
2017-09-15T07:43:38.636Z,988.5
2017-09-15T07:44:39.395Z,988.5
2017-09-15T07:45:40.424Z,988.6
2017-09-15T07:46:41.169Z,988.5
2017-09-15T07:47:41.956Z,988.5
2017-09-15T07:48:42.693Z,988.5
2017-09-15T07:49:43.511Z,988.6
2017-09-15T07:50:44.248Z,988.6
2017-09-15T07:51:45.217Z,988.6
2017-09-15T07:52:45.982Z,988.6
2017-09-15T07:53:47.258Z,988.5
2017-09-15T07:54:47.997Z,988.6
2017-09-15T07:55:48.781Z,988.6
2017-09-15T07:56:49.549Z,988.6
2017-09-15T07:57:50.372Z,988.6
2017-09-15T07:58:51.151Z,988.6
2017-09-15T07:59:52.000Z,988.6
2017-09-15T08:00:53.010Z,988.5
2017-09-15T08:01:54.152Z,988.5
2017-09-15T08:02:54.864Z,988.5
2017-09-15T08:03:55.727Z,988.5
2017-09-15T08:04:56.563Z,988.5
2017-09-15T08:05:57.345Z,988.5
2017-09-15T08:06:58.091Z,988.5
2017-09-15T08:07:58.908Z,988.5
2017-09-15T08:10:16.104Z,988.5
2017-09-15T08:11:16.855Z,988.5
2017-09-15T08:12:17.560Z,988.5
2017-09-15T08:13:18.380Z,988.5
2017-09-15T08:14:19.092Z,988.6
2017-09-15T08:15:19.935Z,988.6
2017-09-15T08:16:20.657Z,988.6
2017-09-15T08:17:21.524Z,988.6
2017-09-15T08:18:22.250Z,988.6
2017-09-15T08:19:23.337Z,988.6
2017-09-15T08:20:24.074Z,988.6
2017-09-15T08:21:25.055Z,988.6
2017-09-15T08:22:25.939Z,988.6
2017-09-15T08:23:26.734Z,988.6
2017-09-15T08:24:27.521Z,988.6
2017-09-15T08:25:28.423Z,988.6
2017-09-15T08:26:29.208Z,988.6
2017-09-15T08:27:29.954Z,988.6
2017-09-15T08:28:30.727Z,988.6
2017-09-15T08:29:31.509Z,988.6
2017-09-15T08:30:32.458Z,988.6
2017-09-15T08:31:33.241Z,988.6
2017-09-15T08:32:34.244Z,988.6
2017-09-15T08:33:35.260Z,988.6
2017-09-15T08:34:36.191Z,988.6
2017-09-15T08:35:37.181Z,988.6
2017-09-15T08:36:38.147Z,988.6
2017-09-15T08:37:38.949Z,988.6
2017-09-15T08:38:39.686Z,988.6
2017-09-15T08:39:40.525Z,988.6
2017-09-15T08:40:41.327Z,988.6
2017-09-15T08:41:42.078Z,988.5
2017-09-15T08:42:42.897Z,988.6
2017-09-15T08:43:43.794Z,988.5
2017-09-15T08:44:44.534Z,988.5
2017-09-15T08:45:45.369Z,988.5
2017-09-15T08:46:46.312Z,988.5
2017-09-15T08:47:47.447Z,988.5
2017-09-15T08:48:48.239Z,988.4
2017-09-15T08:49:49.327Z,988.5
2017-09-15T08:50:50.134Z,988.5
2017-09-15T08:51:50.952Z,988.5
2017-09-15T08:52:51.706Z,988.4
2017-09-15T08:53:52.486Z,988.5
2017-09-15T08:54:53.278Z,988.4
2017-09-15T08:55:54.051Z,988.4
2017-09-15T08:56:55.108Z,988.4
2017-09-15T08:57:55.964Z,988.5
2017-09-15T08:58:56.702Z,988.4
2017-09-15T08:59:57.467Z,988.4
2017-09-15T09:00:58.475Z,988.4
2017-09-15T09:01:59.407Z,988.4
2017-09-15T09:03:00.234Z,988.4
2017-09-15T09:04:00.965Z,988.4
2017-09-15T09:05:02.059Z,988.4
2017-09-15T09:06:02.777Z,988.4
2017-09-15T09:07:03.597Z,988.5
2017-09-15T09:08:04.436Z,988.5
2017-09-15T09:09:05.214Z,988.4
2017-09-15T09:10:05.969Z,988.5
2017-09-15T09:11:06.727Z,988.5
2017-09-15T09:12:07.484Z,988.5
2017-09-15T09:13:08.203Z,988.5
2017-09-15T09:14:08.925Z,988.5
2017-09-15T09:16:25.207Z,988.5
2017-09-15T09:17:26.064Z,988.5
2017-09-15T09:18:26.789Z,988.5
2017-09-15T09:19:27.569Z,988.5
2017-09-15T09:20:28.367Z,988.5
2017-09-15T09:21:29.222Z,988.5
2017-09-15T09:22:30.027Z,988.5
2017-09-15T09:23:30.871Z,988.5
2017-09-15T09:24:31.710Z,988.5
2017-09-15T09:25:32.878Z,988.5
2017-09-15T09:26:33.645Z,988.5
2017-09-15T09:27:39.391Z,988.5
2017-09-15T09:28:40.211Z,988.5
2017-09-15T09:29:40.970Z,988.5
2017-09-15T09:30:41.722Z,988.4
2017-09-15T09:31:42.506Z,988.5
2017-09-15T09:32:43.264Z,988.4
2017-09-15T09:33:44.017Z,988.4
2017-09-15T09:34:45.024Z,988.4
2017-09-15T09:35:45.745Z,988.5
2017-09-15T09:36:46.496Z,988.5
2017-09-15T09:37:47.300Z,988.5
2017-09-15T09:38:48.247Z,988.5
2017-09-15T09:39:49.001Z,988.5
2017-09-15T09:40:49.801Z,988.5
2017-09-15T09:41:50.562Z,988.4
2017-09-15T09:42:51.378Z,988.5
2017-09-15T09:43:52.111Z,988.5
2017-09-15T09:44:52.837Z,988.5
2017-09-15T09:45:53.902Z,988.4
2017-09-15T09:46:54.680Z,988.4
2017-09-15T09:47:55.520Z,988.4
2017-09-15T09:48:56.284Z,988.4
2017-09-15T09:49:57.250Z,988.4
2017-09-15T09:50:58.031Z,988.4
2017-09-15T09:51:59.008Z,988.4
2017-09-15T09:53:00.062Z,988.4
2017-09-15T09:54:00.791Z,988.3
2017-09-15T09:55:01.617Z,988.4
2017-09-15T09:56:02.373Z,988.3
2017-09-15T09:57:03.161Z,988.4
2017-09-15T09:58:03.907Z,988.4
2017-09-15T09:59:04.682Z,988.3
2017-09-15T10:01:21.354Z,988.3
2017-09-15T10:02:22.308Z,988.3
2017-09-15T10:03:23.247Z,988.3
2017-09-15T10:04:24.088Z,988.3
2017-09-15T10:05:24.903Z,988.3
2017-09-15T10:06:25.681Z,988.3
2017-09-15T10:07:26.453Z,988.3
2017-09-15T10:08:27.240Z,988.3
2017-09-15T10:09:28.015Z,988.3
2017-09-15T10:10:28.793Z,988.4
2017-09-15T10:11:29.507Z,988.4
2017-09-15T10:12:30.218Z,988.4
2017-09-15T10:13:31.062Z,988.4
2017-09-15T10:14:32.033Z,988.5
2017-09-15T10:16:48.336Z,988.5
2017-09-15T10:17:49.495Z,988.4
2017-09-15T10:18:50.180Z,988.4
2017-09-15T10:19:51.087Z,988.4
2017-09-15T10:20:51.997Z,988.3
2017-09-15T10:21:53.222Z,988.3
2017-09-15T10:22:53.957Z,988.3
2017-09-15T10:23:54.888Z,988.3
2017-09-15T10:24:55.869Z,988.4
2017-09-15T10:25:56.837Z,988.4
2017-09-15T10:26:57.563Z,988.4
2017-09-15T10:27:58.543Z,988.4
2017-09-15T10:28:59.344Z,988.3
2017-09-15T10:30:00.077Z,988.3
2017-09-15T10:31:00.939Z,988.3
2017-09-15T10:32:01.758Z,988.3
2017-09-15T10:33:02.567Z,988.3
2017-09-15T10:34:03.470Z,988.3
2017-09-15T10:35:04.184Z,988.3
2017-09-15T10:36:05.149Z,988.3
2017-09-15T10:37:06.030Z,988.3
2017-09-15T10:38:06.776Z,988.3
2017-09-15T10:39:07.729Z,988.4
2017-09-15T10:40:08.556Z,988.4
2017-09-15T10:41:09.829Z,988.4
2017-09-15T10:42:11.160Z,988.3
2017-09-15T10:43:11.954Z,988.3
2017-09-15T10:44:13.105Z,988.2
2017-09-15T10:45:14.064Z,988.3
2017-09-15T10:46:14.863Z,988.3
2017-09-15T10:47:15.779Z,988.3
2017-09-15T10:48:16.686Z,988.3
2017-09-15T10:49:17.747Z,988.2
2017-09-15T10:50:18.534Z,988.3
2017-09-15T10:51:19.254Z,988.3
2017-09-15T10:52:20.084Z,988.2
2017-09-15T10:53:21.026Z,988.3
2017-09-15T10:54:21.739Z,988.2
2017-09-15T10:55:22.560Z,988.2
2017-09-15T10:56:23.582Z,988.2
2017-09-15T10:57:24.396Z,988.1
2017-09-15T10:58:25.216Z,988.2
2017-09-15T10:59:25.916Z,988.1
2017-09-15T11:00:26.756Z,988.1
2017-09-15T11:01:27.978Z,988.1
2017-09-15T11:02:28.672Z,988.2
2017-09-15T11:03:29.556Z,988.2
2017-09-15T11:04:30.337Z,988.2
2017-09-15T11:05:31.158Z,988.2
2017-09-15T11:06:31.934Z,988.2
2017-09-15T11:07:32.708Z,988.2
2017-09-15T11:08:33.486Z,988.2
2017-09-15T11:09:34.211Z,988.1
2017-09-15T11:10:34.967Z,988.1
2017-09-15T11:11:35.733Z,988.1
2017-09-15T11:12:36.554Z,988.1
2017-09-15T11:13:37.259Z,988.1
2017-09-15T11:14:38.062Z,988.1
2017-09-15T11:15:38.827Z,988.1
2017-09-15T11:16:39.604Z,988.1
2017-09-15T11:17:40.314Z,988.1
2017-09-15T11:18:41.044Z,988.1
2017-09-15T11:19:41.804Z,988.1
2017-09-15T11:20:42.593Z,988.0
2017-09-15T11:21:43.326Z,988.0
2017-09-15T11:22:44.126Z,988.0
2017-09-15T11:23:44.873Z,988.0
2017-09-15T11:24:45.681Z,988.0
2017-09-15T11:25:46.647Z,988.0
2017-09-15T11:26:47.642Z,988.0
2017-09-15T11:27:48.593Z,988.0
2017-09-15T11:28:49.297Z,988.0
2017-09-15T11:29:50.031Z,988.0
2017-09-15T11:30:51.129Z,988.0
2017-09-15T11:31:52.055Z,988.0
2017-09-15T11:32:53.101Z,987.9
2017-09-15T11:33:53.920Z,987.9
2017-09-15T11:34:54.619Z,987.9
2017-09-15T11:35:55.383Z,987.9
2017-09-15T11:36:56.187Z,987.9
2017-09-15T11:37:56.937Z,987.9
2017-09-15T11:38:57.691Z,987.9
2017-09-15T11:39:58.493Z,987.8
2017-09-15T11:40:59.501Z,987.9
2017-09-15T11:42:00.276Z,987.9
2017-09-15T11:43:01.124Z,987.8
2017-09-15T11:44:01.956Z,987.9
2017-09-15T11:45:02.680Z,987.9
2017-09-15T11:46:03.533Z,987.9
2017-09-15T11:47:04.280Z,987.9
2017-09-15T11:48:05.076Z,987.9
2017-09-15T11:49:06.159Z,987.9
2017-09-15T11:50:07.823Z,988.0
2017-09-15T11:51:08.654Z,987.9
2017-09-15T11:52:09.880Z,988.0
2017-09-15T11:53:10.652Z,988.0
2017-09-15T11:54:11.403Z,987.9
2017-09-15T11:55:12.130Z,987.9
2017-09-15T11:56:12.934Z,988.0
2017-09-15T11:57:13.710Z,987.9
2017-09-15T12:03:17.072Z,987.9
2017-09-15T12:04:17.760Z,987.9
2017-09-15T12:05:18.676Z,987.8
2017-09-15T12:06:19.552Z,987.9
2017-09-15T12:07:20.487Z,987.9
2017-09-15T12:08:21.338Z,987.9
2017-09-15T12:09:22.087Z,987.9
2017-09-15T12:10:23.014Z,987.9
2017-09-15T12:11:23.741Z,987.9
2017-09-15T12:12:24.465Z,987.9
2017-09-15T12:13:25.301Z,987.9
2017-09-15T12:14:26.073Z,988.0
2017-09-15T12:15:27.767Z,987.9
2017-09-15T12:16:28.609Z,987.9
2017-09-15T12:17:29.322Z,987.9
2017-09-15T12:18:30.085Z,987.9
2017-09-15T12:19:30.981Z,987.9
2017-09-15T12:20:31.942Z,987.9
2017-09-15T12:21:32.662Z,987.9
2017-09-15T12:22:33.473Z,987.9
2017-09-15T12:23:34.311Z,988.0
2017-09-15T12:24:35.069Z,987.9
2017-09-15T12:25:36.123Z,987.9
2017-09-15T12:26:36.899Z,987.9
2017-09-15T12:27:37.909Z,987.8
2017-09-15T12:28:38.724Z,987.8
2017-09-15T12:29:39.560Z,987.8
2017-09-15T12:30:40.384Z,987.8
2017-09-15T12:31:41.181Z,987.9
2017-09-15T12:32:42.034Z,987.8
2017-09-15T12:33:42.782Z,987.8
2017-09-15T12:34:43.530Z,987.8
2017-09-15T12:35:44.336Z,987.8
2017-09-15T12:36:45.335Z,987.8
2017-09-15T12:37:46.149Z,987.7
2017-09-15T12:38:46.897Z,987.8
2017-09-15T12:39:47.686Z,987.8
2017-09-15T12:40:48.587Z,987.8
2017-09-15T12:41:49.336Z,987.8
2017-09-15T12:42:50.168Z,987.8
2017-09-15T12:43:50.910Z,987.7
2017-09-15T12:44:51.632Z,987.7
2017-09-15T12:45:52.496Z,987.7
2017-09-15T12:46:53.402Z,987.7
2017-09-15T12:47:54.131Z,987.7
2017-09-15T12:48:54.873Z,987.7
2017-09-15T12:49:55.599Z,987.7
2017-09-15T12:50:56.391Z,987.7
2017-09-15T12:51:57.256Z,987.7
2017-09-15T12:52:58.024Z,987.7
2017-09-15T12:53:58.807Z,987.7
2017-09-15T12:54:59.772Z,987.8
2017-09-15T12:56:00.701Z,987.8
2017-09-15T12:57:01.490Z,987.8
2017-09-15T12:58:02.293Z,987.8
2017-09-15T12:59:03.054Z,987.8
2017-09-15T13:00:03.944Z,987.8
2017-09-15T13:01:04.743Z,987.8
2017-09-15T13:02:05.580Z,987.8
2017-09-15T13:03:06.332Z,987.8
2017-09-15T13:04:07.386Z,987.7
2017-09-15T13:05:08.170Z,987.7
2017-09-15T13:06:08.956Z,987.7
2017-09-15T13:07:09.697Z,987.7
2017-09-15T13:08:10.526Z,987.7
2017-09-15T13:09:11.639Z,987.7
2017-09-15T13:10:13.007Z,987.6
2017-09-15T13:11:13.987Z,987.6
2017-09-15T13:12:15.080Z,987.6
2017-09-15T13:13:15.898Z,987.6
2017-09-15T13:14:16.740Z,987.6
2017-09-15T13:15:17.665Z,987.6
2017-09-15T13:16:18.777Z,987.5
2017-09-15T13:17:19.512Z,987.5
2017-09-15T13:18:20.316Z,987.5
2017-09-15T13:19:21.115Z,987.5
2017-09-15T13:20:22.010Z,987.5
2017-09-15T13:21:22.867Z,987.5
2017-09-15T13:22:23.650Z,987.4
2017-09-15T13:23:24.423Z,987.4
2017-09-15T13:24:25.351Z,987.4